Time;durP1;ratioP1;P1;durP2;ratioP2;P2;SDS_P1;SDS_P2;PMS_P1;PMS_P2;Temp;Humidity;BMP_temperature;BMP_pressure;BME280_temperature;BME280_humidity;BME280_pressure;Samples;Min_cycle;Max_cycle;Signal;HPM_P1;HPM_P2
2024/03/19 00:01:37;;;;;;;7.35;2.80;;;;;;;;;;6139370;23;20474;-82
2024/03/19 00:04:05;;;;;;;7.50;2.53;;;;;;;;;;6139581;23;20097;-80
2024/03/19 00:06:31;;;;;;;7.77;3.03;;;;;;;;;;6114012;23;20010;-82
2024/03/19 00:08:56;;;;;;;5.85;2.42;;;;;;;;;;6114998;23;20033;-82
2024/03/19 00:11:24;;;;;;;4.00;2.13;;;;;;;;;;6116049;23;20005;-82
2024/03/19 00:13:50;;;;;;;7.38;2.60;;;;;;;;;;6115311;23;20014;-82
2024/03/19 00:16:16;;;;;;;6.07;2.58;;;;;;;;;;6140072;23;20055;-82
2024/03/19 00:18:42;;;;;;;7.50;2.90;;;;;;;;;;6141853;23;20088;-82
2024/03/19 00:21:09;;;;;;;6.43;2.65;;;;;;;;;;6117383;23;20044;-82
2024/03/19 00:23:35;;;;;;;5.70;2.67;;;;;;;;;;6166943;23;20033;-82
2024/03/19 00:26:01;;;;;;;5.15;2.60;;;;;;;;;;6117797;23;20009;-82
2024/03/19 00:28:26;;;;;;;5.55;2.63;;;;;;;;;;6116368;23;20628;-82
2024/03/19 00:30:54;;;;;;;5.35;2.53;;;;;;;;;;6143944;23;20065;-81
2024/03/19 00:33:21;;;;;;;4.80;2.58;;;;;;;;;;6102565;23;20009;-82
2024/03/19 00:35:49;;;;;;;10.48;2.53;;;;;;;;;;6125896;23;20013;-81
2024/03/19 00:38:14;;;;;;;6.47;2.50;;;;;;;;;;6126198;23;20013;-81
2024/03/19 00:40:40;;;;;;;8.68;2.38;;;;;;;;;;6129084;23;20033;-82
2024/03/19 00:43:10;;;;;;;5.70;2.72;;;;;;;;;;6176470;23;20021;-82
2024/03/19 00:45:37;;;;;;;6.70;3.10;;;;;;;;;;6162184;23;20012;-82
2024/03/19 00:48:04;;;;;;;8.10;3.08;;;;;;;;;;6136329;23;20005;-82
2024/03/19 00:50:30;;;;;;;8.77;2.88;;;;;;;;;;6135402;23;20005;-81
2024/03/19 00:52:55;;;;;;;10.90;3.30;;;;;;;;;;6137302;23;20006;-81
2024/03/19 00:55:21;;;;;;;5.40;2.70;;;;;;;;;;6114160;23;20044;-80
2024/03/19 00:57:48;;;;;;;6.05;2.53;;;;;;;;;;6160680;23;20029;-80
2024/03/19 01:00:16;;;;;;;8.40;2.90;;;;;;;;;;6113388;23;20385;-81
2024/03/19 01:02:44;;;;;;;9.25;2.90;;;;;;;;;;6114267;23;20012;-82
2024/03/19 01:05:11;;;;;;;6.93;3.10;;;;;;;;;;6114313;23;20014;-80
2024/03/19 01:07:43;;;;;;;7.25;2.80;;;;;;;;;;6137546;23;20068;-81
2024/03/19 01:10:09;;;;;;;5.68;2.70;;;;;;;;;;6164193;23;20008;-81
2024/03/19 01:12:36;;;;;;;5.35;2.95;;;;;;;;;;6113919;23;20010;-81
2024/03/19 01:15:02;;;;;;;9.35;3.00;;;;;;;;;;6140938;23;20351;-80
2024/03/19 01:17:28;;;;;;;5.53;2.60;;;;;;;;;;6168978;23;20001;-81
2024/03/19 01:19:54;;;;;;;6.32;2.92;;;;;;;;;;6116068;23;20048;-82
2024/03/19 01:22:21;;;;;;;6.60;2.67;;;;;;;;;;6161523;23;20060;-82
2024/03/19 01:24:48;;;;;;;6.68;2.40;;;;;;;;;;6112893;23;20056;-82
2024/03/19 01:27:16;;;;;;;7.38;2.88;;;;;;;;;;6141972;23;20006;-82
2024/03/19 01:29:41;;;;;;;5.85;2.72;;;;;;;;;;6147199;23;20013;-82
2024/03/19 01:32:08;;;;;;;5.82;2.83;;;;;;;;;;6151185;23;20466;-81
2024/03/19 01:34:34;;;;;;;6.97;2.47;;;;;;;;;;6129062;23;20249;-82
2024/03/19 01:36:59;;;;;;;5.28;2.70;;;;;;;;;;6128560;23;20064;-82
2024/03/19 01:39:25;;;;;;;6.55;2.65;;;;;;;;;;6150123;23;20016;-82
2024/03/19 01:41:54;;;;;;;8.55;2.78;;;;;;;;;;6115862;23;20012;-82
2024/03/19 01:44:19;;;;;;;6.27;2.57;;;;;;;;;;6111998;23;20010;-82
2024/03/19 01:46:45;;;;;;;11.73;3.05;;;;;;;;;;6161932;23;20273;-82
2024/03/19 01:49:11;;;;;;;5.80;2.90;;;;;;;;;;6112358;23;20005;-80
2024/03/19 01:51:37;;;;;;;6.38;2.65;;;;;;;;;;6136927;23;20444;-82
2024/03/19 01:54:03;;;;;;;5.45;2.40;;;;;;;;;;6162317;23;20010;-81
2024/03/19 01:56:30;;;;;;;6.30;2.90;;;;;;;;;;6142221;23;20009;-82
2024/03/19 01:58:56;;;;;;;6.00;2.65;;;;;;;;;;6139313;23;20009;-82
2024/03/19 02:01:22;;;;;;;8.73;3.00;;;;;;;;;;6118042;23;20443;-82
2024/03/19 02:03:50;;;;;;;7.90;2.85;;;;;;;;;;6140404;23;20005;-82
2024/03/19 02:06:16;;;;;;;7.35;3.08;;;;;;;;;;6144418;23;20017;-82
2024/03/19 02:08:57;;;;;;;6.57;2.67;;;;;;;;;;6142358;23;20013;-82
2024/03/19 02:11:23;;;;;;;5.88;2.65;;;;;;;;;;6145345;23;20013;-82
2024/03/19 02:13:48;;;;;;;6.65;2.97;;;;;;;;;;6146052;23;20006;-82
2024/03/19 02:16:14;;;;;;;5.88;2.83;;;;;;;;;;6146722;23;20049;-82
2024/03/19 02:18:39;;;;;;;7.00;3.10;;;;;;;;;;6179886;23;20000;-82
2024/03/19 02:21:05;;;;;;;6.78;2.90;;;;;;;;;;6132061;23;20028;-81
2024/03/19 02:23:31;;;;;;;7.25;2.92;;;;;;;;;;6155372;23;20442;-81
2024/03/19 02:25:56;;;;;;;6.97;3.13;;;;;;;;;;6180764;23;20013;-82
2024/03/19 02:28:24;;;;;;;5.38;2.45;;;;;;;;;;6157573;23;20009;-82
2024/03/19 02:30:50;;;;;;;5.22;2.78;;;;;;;;;;6152060;23;20351;-81
2024/03/19 02:33:15;;;;;;;5.60;2.58;;;;;;;;;;6141591;23;20006;-81
2024/03/19 02:35:41;;;;;;;7.47;3.05;;;;;;;;;;6137364;23;20017;-81
2024/03/19 02:38:07;;;;;;;6.30;2.95;;;;;;;;;;6113454;23;20009;-81
2024/03/19 02:40:33;;;;;;;8.10;3.38;;;;;;;;;;6115360;23;20355;-81
2024/03/19 02:42:58;;;;;;;9.15;2.92;;;;;;;;;;6136340;23;20014;-81
2024/03/19 02:45:25;;;;;;;6.85;2.97;;;;;;;;;;6159522;23;20009;-81
2024/03/19 02:47:51;;;;;;;10.38;3.22;;;;;;;;;;6135900;23;20009;-81
2024/03/19 02:50:16;;;;;;;9.23;3.60;;;;;;;;;;6110587;23;20032;-81
2024/03/19 02:52:42;;;;;;;6.53;2.90;;;;;;;;;;6161020;23;20010;-80
2024/03/19 02:55:08;;;;;;;6.88;3.22;;;;;;;;;;6135991;23;20021;-81
2024/03/19 02:57:33;;;;;;;7.63;3.30;;;;;;;;;;6137047;23;20060;-82
2024/03/19 03:00:02;;;;;;;9.73;3.40;;;;;;;;;;6118351;23;20017;-80
2024/03/19 03:02:31;;;;;;;6.75;3.00;;;;;;;;;;6153570;23;20016;-80
2024/03/19 03:04:56;;;;;;;8.57;3.45;;;;;;;;;;6133022;23;20021;-81
2024/03/19 03:07:22;;;;;;;8.23;2.83;;;;;;;;;;6156451;23;20012;-82
2024/03/19 03:09:48;;;;;;;8.15;3.47;;;;;;;;;;6131375;23;20020;-81
2024/03/19 03:12:13;;;;;;;7.35;3.13;;;;;;;;;;6181254;23;20009;-80
2024/03/19 03:14:39;;;;;;;8.60;3.22;;;;;;;;;;6139104;23;20009;-81
2024/03/19 03:17:08;;;;;;;7.53;3.25;;;;;;;;;;6164786;23;20025;-82
2024/03/19 03:19:40;;;;;;;9.48;3.47;;;;;;;;;;6141299;23;20010;-81
2024/03/19 03:22:05;;;;;;;8.07;3.05;;;;;;;;;;6163947;23;20002;-81
2024/03/19 03:24:34;;;;;;;5.55;3.00;;;;;;;;;;6163906;23;20374;-82
2024/03/19 03:27:00;;;;;;;7.47;3.30;;;;;;;;;;6115478;23;20044;-82
2024/03/19 03:29:25;;;;;;;7.00;3.17;;;;;;;;;;6114743;23;20009;-82
2024/03/19 03:31:52;;;;;;;6.28;3.03;;;;;;;;;;6111697;23;20006;-81
2024/03/19 03:34:17;;;;;;;7.38;3.47;;;;;;;;;;6135561;23;20092;-82
2024/03/19 03:36:44;;;;;;;7.22;3.67;;;;;;;;;;6163034;23;20010;-82
2024/03/19 03:39:12;;;;;;;8.57;3.42;;;;;;;;;;6140397;23;20013;-82
2024/03/19 03:41:38;;;;;;;11.02;3.92;;;;;;;;;;6137962;23;20343;-81
2024/03/19 03:44:08;;;;;;;7.93;3.78;;;;;;;;;;6114062;23;20010;-81
2024/03/19 03:46:34;;;;;;;7.35;3.35;;;;;;;;;;6137580;23;20411;-82
2024/03/19 03:49:00;;;;;;;10.82;4.28;;;;;;;;;;6089405;23;20014;-82
2024/03/19 03:51:25;;;;;;;8.32;3.55;;;;;;;;;;6138048;23;20012;-82
2024/03/19 03:53:51;;;;;;;8.20;4.30;;;;;;;;;;6138686;23;20042;-82
2024/03/19 03:56:16;;;;;;;14.57;6.70;;;;;;;;;;6138318;23;20009;-82
2024/03/19 03:58:42;;;;;;;16.02;5.65;;;;;;;;;;6137875;23;20032;-82
2024/03/19 04:01:10;;;;;;;11.52;4.93;;;;;;;;;;6142081;23;20014;-82
2024/03/19 04:03:36;;;;;;;6.95;3.47;;;;;;;;;;6151571;23;20006;-82
2024/03/19 04:06:02;;;;;;;9.68;3.85;;;;;;;;;;6178138;23;20029;-81
2024/03/19 04:08:27;;;;;;;8.63;3.65;;;;;;;;;;6151152;23;20463;-82
2024/03/19 04:10:53;;;;;;;9.10;3.28;;;;;;;;;;6131368;23;19997;-82
2024/03/19 04:13:18;;;;;;;9.82;3.97;;;;;;;;;;6156934;23;20001;-82
2024/03/19 04:15:49;;;;;;;8.02;3.60;;;;;;;;;;6132111;23;20005;-82
2024/03/19 04:18:15;;;;;;;8.95;3.92;;;;;;;;;;6179581;23;20053;-82
2024/03/19 04:20:41;;;;;;;7.90;3.35;;;;;;;;;;6141036;23;20006;-82
2024/03/19 04:23:07;;;;;;;5.72;3.30;;;;;;;;;;6112955;23;20017;-82
2024/03/19 04:25:33;;;;;;;10.77;3.92;;;;;;;;;;6114650;23;20016;-81
2024/03/19 04:27:59;;;;;;;10.00;4.68;;;;;;;;;;6113178;23;20009;-82
2024/03/19 04:30:25;;;;;;;8.77;4.20;;;;;;;;;;6163985;23;20348;-81
2024/03/19 04:32:51;;;;;;;6.93;3.70;;;;;;;;;;6139322;23;20095;-80
2024/03/19 04:35:16;;;;;;;8.00;3.92;;;;;;;;;;6113803;23;20009;-81
2024/03/19 04:37:45;;;;;;;7.72;4.00;;;;;;;;;;6164355;23;20013;-81
2024/03/19 04:40:11;;;;;;;;;;;;;;;;;;6115681;23;20009;-82
2024/03/19 04:42:37;;;;;;;11.85;4.68;;;;;;;;;;6139264;23;20004;-82
2024/03/19 04:45:04;;;;;;;8.75;5.00;;;;;;;;;;6114724;23;20006;-80
2024/03/19 04:47:31;;;;;;;10.35;4.10;;;;;;;;;;6115373;23;20027;-81
2024/03/19 04:49:56;;;;;;;10.85;4.22;;;;;;;;;;6140233;23;20029;-80
2024/03/19 04:52:22;;;;;;;8.23;3.55;;;;;;;;;;6115440;23;20010;-82
2024/03/19 04:54:49;;;;;;;8.20;4.13;;;;;;;;;;6163734;23;20020;-80
2024/03/19 04:57:15;;;;;;;9.20;3.97;;;;;;;;;;6115705;23;20010;-81
2024/03/19 04:59:40;;;;;;;8.98;4.03;;;;;;;;;;6117685;23;20009;-82
2024/03/19 05:02:06;;;;;;;8.90;4.03;;;;;;;;;;6119975;23;20033;-81
2024/03/19 05:04:32;;;;;;;8.60;3.95;;;;;;;;;;6143850;23;20010;-82
2024/03/19 05:06:58;;;;;;;8.93;4.00;;;;;;;;;;6148999;23;20005;-81
2024/03/19 05:09:23;;;;;;;10.32;4.22;;;;;;;;;;6117219;23;20467;-83
2024/03/19 05:11:50;;;;;;;10.18;4.50;;;;;;;;;;6117351;23;20016;-81
2024/03/19 05:14:16;;;;;;;12.57;4.80;;;;;;;;;;6118096;23;20009;-83
2024/03/19 05:16:41;;;;;;;9.68;3.88;;;;;;;;;;6117316;23;20335;-82
2024/03/19 05:19:07;;;;;;;11.10;5.25;;;;;;;;;;6154632;23;20021;-80
2024/03/19 05:21:33;;;;;;;9.95;4.30;;;;;;;;;;6152880;23;20005;-82
2024/03/19 05:23:59;;;;;;;9.75;4.43;;;;;;;;;;6147710;23;20016;-81
2024/03/19 05:26:24;;;;;;;12.70;5.22;;;;;;;;;;6112225;23;20443;-80
2024/03/19 05:28:50;;;;;;;8.98;4.60;;;;;;;;;;6108600;23;20037;-81
2024/03/19 05:31:19;;;;;;;17.17;5.70;;;;;;;;;;6134880;23;20441;-80
2024/03/19 05:33:45;;;;;;;10.68;4.95;;;;;;;;;;6171364;23;20005;-80
2024/03/19 05:36:10;;;;;;;8.85;4.57;;;;;;;;;;6157875;23;20009;-80
2024/03/19 05:38:36;;;;;;;12.43;4.30;;;;;;;;;;6157918;23;19993;-80
2024/03/19 05:41:02;;;;;;;13.13;5.22;;;;;;;;;;6151811;23;20049;-81
2024/03/19 05:43:27;;;;;;;9.52;4.50;;;;;;;;;;6142832;23;20009;-81
2024/03/19 05:45:55;;;;;;;8.38;4.47;;;;;;;;;;6146808;23;20012;-80
2024/03/19 05:48:21;;;;;;;9.70;5.13;;;;;;;;;;6118105;23;20006;-80
2024/03/19 05:50:46;;;;;;;9.68;4.68;;;;;;;;;;6156811;23;20122;-82
2024/03/19 05:53:12;;;;;;;9.55;4.75;;;;;;;;;;6130969;23;20009;-82
2024/03/19 05:55:37;;;;;;;8.85;4.70;;;;;;;;;;6130975;23;20016;-81
2024/03/19 05:58:03;;;;;;;8.55;4.55;;;;;;;;;;6107931;23;20009;-81
2024/03/19 06:00:29;;;;;;;14.20;4.55;;;;;;;;;;6106818;23;20005;-81
2024/03/19 06:02:54;;;;;;;11.82;4.57;;;;;;;;;;6107009;23;20009;-82
2024/03/19 06:05:20;;;;;;;12.65;4.90;;;;;;;;;;6129481;23;20525;-82
2024/03/19 06:07:45;;;;;;;11.75;5.50;;;;;;;;;;6105917;23;20010;-82
2024/03/19 06:10:11;;;;;;;13.93;5.88;;;;;;;;;;6155324;23;20392;-82
2024/03/19 06:12:37;;;;;;;14.93;5.15;;;;;;;;;;6106471;23;20009;-83
2024/03/19 06:15:04;;;;;;;17.27;7.70;;;;;;;;;;6106426;23;20017;-83
2024/03/19 06:17:29;;;;;;;9.23;4.20;;;;;;;;;;6131694;23;20013;-82
2024/03/19 06:19:55;;;;;;;9.02;4.72;;;;;;;;;;6106143;23;20015;-82
2024/03/19 06:22:20;;;;;;;15.85;5.82;;;;;;;;;;6155958;23;20013;-82
2024/03/19 06:24:46;;;;;;;11.10;4.50;;;;;;;;;;6132351;23;20013;-82
2024/03/19 06:27:11;;;;;;;9.13;5.40;;;;;;;;;;6134725;23;20017;-82
2024/03/19 06:29:37;;;;;;;7.88;4.63;;;;;;;;;;6110163;23;20059;-82
2024/03/19 06:32:04;;;;;;;11.27;4.50;;;;;;;;;;6111571;23;20013;-82
2024/03/19 06:34:29;;;;;;;14.10;5.45;;;;;;;;;;6159862;23;20367;-81
2024/03/19 06:36:55;;;;;;;8.88;4.97;;;;;;;;;;6112187;23;20085;-83
2024/03/19 06:39:21;;;;;;;12.13;5.28;;;;;;;;;;6135129;23;20013;-82
2024/03/19 06:41:47;;;;;;;8.93;4.90;;;;;;;;;;6135617;23;20008;-82
2024/03/19 06:44:12;;;;;;;9.30;4.53;;;;;;;;;;6133587;23;20013;-82
2024/03/19 06:46:38;;;;;;;12.85;5.13;;;;;;;;;;6162884;23;20040;-82
2024/03/19 06:49:04;;;;;;;14.07;4.72;;;;;;;;;;6147116;23;20025;-82
2024/03/19 06:51:36;;;;;;;9.82;4.90;;;;;;;;;;6127480;23;20009;-82
2024/03/19 06:54:02;;;;;;;10.48;5.30;;;;;;;;;;6154719;23;20036;-82
2024/03/19 06:56:27;;;;;;;10.63;5.13;;;;;;;;;;6128972;23;20005;-82
2024/03/19 06:58:53;;;;;;;11.05;5.72;;;;;;;;;;6149347;23;20037;-82
2024/03/19 07:01:22;;;;;;;10.05;5.18;;;;;;;;;;6136052;23;20040;-81
2024/03/19 07:03:50;;;;;;;10.82;5.47;;;;;;;;;;6135493;23;20096;-81
2024/03/19 07:06:16;;;;;;;12.27;5.50;;;;;;;;;;6109353;23;20443;-83
2024/03/19 07:08:45;;;;;;;13.73;5.25;;;;;;;;;;6158415;23;20081;-80
2024/03/19 07:11:11;;;;;;;16.10;5.95;;;;;;;;;;6108531;23;20041;-82
2024/03/19 07:13:36;;;;;;;11.68;5.38;;;;;;;;;;6107756;23;20014;-83
2024/03/19 07:16:03;;;;;;;15.63;4.97;;;;;;;;;;6157416;23;20077;-82
2024/03/19 07:18:28;;;;;;;13.18;5.32;;;;;;;;;;6109457;23;20175;-82
2024/03/19 07:20:55;;;;;;;11.25;4.70;;;;;;;;;;6109154;23;20439;-81
2024/03/19 07:23:21;;;;;;;10.60;5.40;;;;;;;;;;6132362;23;20016;-80
2024/03/19 07:25:46;;;;;;;9.63;4.53;;;;;;;;;;6131171;23;20013;-82
2024/03/19 07:28:13;;;;;;;10.13;4.80;;;;;;;;;;6108878;23;20025;-82
2024/03/19 07:30:39;;;;;;;10.25;4.95;;;;;;;;;;6107742;23;20546;-82
2024/03/19 07:33:05;;;;;;;11.90;5.22;;;;;;;;;;6106130;23;20014;-81
2024/03/19 07:35:30;;;;;;;8.55;4.93;;;;;;;;;;6130855;23;20435;-82
2024/03/19 07:37:56;;;;;;;10.25;5.50;;;;;;;;;;6132325;23;19996;-81
2024/03/19 07:40:25;;;;;;;7.85;4.68;;;;;;;;;;6096456;23;20017;-81
2024/03/19 07:43:00;;;;;;;12.73;4.90;;;;;;;;;;6126206;23;20036;-81
2024/03/19 07:45:26;;;;;;;9.43;4.20;;;;;;;;;;6122112;23;20005;-81
2024/03/19 07:47:52;;;;;;;8.75;4.80;;;;;;;;;;6098061;23;20016;-81
2024/03/19 07:50:28;;;;;;;8.30;4.30;;;;;;;;;;6151441;23;20001;-82
2024/03/19 07:53:01;;;;;;;12.00;4.57;;;;;;;;;;6149672;23;20004;-81
2024/03/19 07:55:40;;;;;;;9.45;4.35;;;;;;;;;;6093036;23;20032;-81
2024/03/19 07:58:07;;;;;;;9.68;4.18;;;;;;;;;;6064930;23;20014;-82
2024/03/19 08:00:51;;;;;;;8.68;4.53;;;;;;;;;;6116835;23;20010;-82
2024/03/19 08:03:18;;;;;;;11.40;4.68;;;;;;;;;;6118389;23;20029;-81
2024/03/19 08:05:46;;;;;;;15.50;5.68;;;;;;;;;;6136927;23;20009;-81
2024/03/19 08:08:16;;;;;;;12.48;4.35;;;;;;;;;;6088296;23;20028;-82
2024/03/19 08:10:45;;;;;;;12.85;5.68;;;;;;;;;;6065484;23;20136;-82
2024/03/19 08:13:35;;;;;;;9.27;4.18;;;;;;;;;;6104275;23;20692;-81
2024/03/19 08:16:32;;;;;;;9.55;4.32;;;;;;;;;;6137455;23;20001;-81
2024/03/19 08:19:21;;;;;;;8.82;4.75;;;;;;;;;;6093073;23;20068;-81
2024/03/19 08:21:56;;;;;;;10.80;4.95;;;;;;;;;;6109576;23;20014;-79
2024/03/19 08:24:52;;;;;;;;;;;;;;;;;;;;;
2024/03/19 08:27:21;;;;;;;14.43;5.53;;;;;;;;;;6125803;23;20085;-79
2024/03/19 08:29:50;;;;;;;12.68;6.55;;;;;;;;;;6130076;23;20069;-80
2024/03/19 08:32:15;;;;;;;7.93;4.75;;;;;;;;;;6079883;23;20010;-80
2024/03/19 08:34:44;;;;;;;10.63;4.45;;;;;;;;;;6099748;23;20154;-80
2024/03/19 08:37:16;;;;;;;9.30;4.25;;;;;;;;;;6102572;23;20006;-80
2024/03/19 08:39:47;;;;;;;14.68;7.00;;;;;;;;;;6077440;23;20066;-80
2024/03/19 08:42:16;;;;;;;7.80;4.40;;;;;;;;;;6100636;23;20006;-80
2024/03/19 08:44:46;;;;;;;11.60;4.97;;;;;;;;;;6124069;23;20431;-80
2024/03/19 08:47:12;;;;;;;8.98;4.50;;;;;;;;;;6075483;23;20014;-81
2024/03/19 08:49:41;;;;;;;7.50;4.05;;;;;;;;;;6099828;23;20017;-81
2024/03/19 08:52:06;;;;;;;9.68;4.00;;;;;;;;;;6129483;23;20010;-81
2024/03/19 08:54:32;;;;;;;7.80;3.78;;;;;;;;;;6054248;23;20014;-81
2024/03/19 08:57:01;;;;;;;12.05;5.45;;;;;;;;;;6078008;23;20101;-82
2024/03/19 08:59:27;;;;;;;;;;;;;;;;;;6077056;23;20014;-81
2024/03/19 09:01:56;;;;;;;8.95;4.28;;;;;;;;;;6054037;23;19905;-81
2024/03/19 09:04:33;;;;;;;10.25;4.10;;;;;;;;;;6100335;23;20086;-80
2024/03/19 09:07:01;;;;;;;10.82;4.28;;;;;;;;;;6100287;23;20021;-81
2024/03/19 09:09:27;;;;;;;7.47;3.75;;;;;;;;;;6099765;23;20118;-82
2024/03/19 09:11:55;;;;;;;6.80;3.42;;;;;;;;;;6101092;23;20131;-82
2024/03/19 09:14:26;;;;;;;6.95;3.55;;;;;;;;;;6078765;23;20348;-83
2024/03/19 09:16:52;;;;;;;7.90;3.38;;;;;;;;;;6098796;23;20068;-81
2024/03/19 09:19:21;;;;;;;5.25;3.03;;;;;;;;;;6100384;23;20010;-82
2024/03/19 09:21:47;;;;;;;5.75;3.58;;;;;;;;;;6104533;23;20066;-82
2024/03/19 09:24:15;;;;;;;6.93;3.20;;;;;;;;;;6105147;23;20018;-82
2024/03/19 09:26:53;;;;;;;7.93;3.47;;;;;;;;;;6088073;23;20070;-82
2024/03/19 09:29:23;;;;;;;11.52;4.00;;;;;;;;;;6079531;23;20020;-81
2024/03/19 09:35:59;;;;;;;6.63;3.22;;;;;;;;;;6189956;23;20024;-82
2024/03/19 09:38:25;;;;;;;9.25;3.38;;;;;;;;;;6139081;23;20005;-82
2024/03/19 09:40:55;;;;;;;8.10;3.72;;;;;;;;;;6139211;23;20387;-83
2024/03/19 09:43:26;;;;;;;9.13;3.30;;;;;;;;;;6164384;23;20001;-81
2024/03/19 09:46:01;;;;;;;6.85;3.30;;;;;;;;;;6164895;23;20072;-82
2024/03/19 09:48:30;;;;;;;6.07;2.97;;;;;;;;;;6139607;23;20033;-83
2024/03/19 09:51:17;;;;;;;15.98;3.72;;;;;;;;;;6140386;23;20514;-82
2024/03/19 09:53:52;;;;;;;6.22;3.05;;;;;;;;;;6119832;23;20059;-82
2024/03/19 09:56:49;;;;;;;14.07;3.47;;;;;;;;;;6123357;23;20009;-81
2024/03/19 09:59:21;;;;;;;5.00;2.83;;;;;;;;;;6118597;23;20435;-82
2024/03/19 10:01:53;;;;;;;11.05;3.42;;;;;;;;;;6147254;23;20009;-82
2024/03/19 10:04:37;;;;;;;;;;;;;;;;;;;;;
2024/03/19 10:07:42;;;;;;;7.43;3.10;;;;;;;;;;6144367;23;20395;-83
2024/03/19 10:10:51;;;;;;;7.03;3.40;;;;;;;;;;6145121;23;20005;-82
2024/03/19 10:13:48;;;;;;;8.52;3.35;;;;;;;;;;6116503;23;20009;-82
2024/03/19 10:16:26;;;;;;;9.75;3.58;;;;;;;;;;6129946;23;20037;-82
2024/03/19 10:18:54;;;;;;;10.77;4.65;;;;;;;;;;6138636;23;20635;-82
2024/03/19 10:21:21;;;;;;;6.05;3.65;;;;;;;;;;6138032;23;20316;-82
2024/03/19 10:24:20;;;;;;;6.32;3.13;;;;;;;;;;6177379;23;20032;-82
2024/03/19 10:27:09;;;;;;;7.63;3.47;;;;;;;;;;6164570;23;20063;-81
2024/03/19 10:29:52;;;;;;;5.57;3.28;;;;;;;;;;6157771;23;20308;-83
2024/03/19 10:36:44;;;;;;;7.57;3.58;;;;;;;;;;6172390;23;20478;-82
2024/03/19 10:39:20;;;;;;;4.75;2.45;;;;;;;;;;6139222;23;20017;-81
2024/03/19 10:42:04;;;;;;;6.03;2.80;;;;;;;;;;6136311;23;20009;-82
2024/03/19 10:47:32;;;;;;;6.93;2.75;;;;;;;;;;6163954;23;20012;-82
2024/03/19 10:50:22;;;;;;;5.78;2.42;;;;;;;;;;6165445;23;19997;-81
2024/03/19 10:52:57;;;;;;;5.72;2.50;;;;;;;;;;6170205;23;20085;-81
2024/03/19 10:55:46;;;;;;;6.07;2.65;;;;;;;;;;6122146;23;20009;-82
2024/03/19 10:58:26;;;;;;;5.18;2.53;;;;;;;;;;6166861;23;20061;-81
2024/03/19 11:01:04;;;;;;;4.25;2.35;;;;;;;;;;6140314;23;20033;-82
2024/03/19 11:04:01;;;;;;;4.63;2.30;;;;;;;;;;6139053;23;20574;-83
2024/03/19 11:06:46;;;;;;;6.38;2.50;;;;;;;;;;6137837;23;20348;-81
2024/03/19 11:09:18;;;;;;;42.13;5.63;;;;;;;;;;6138277;23;20518;-81
2024/03/19 11:11:57;;;;;;;9.73;2.58;;;;;;;;;;6138168;23;20010;-81
2024/03/19 11:17:47;;;;;;;6.28;2.58;;;;;;;;;;6157655;23;20012;-82
2024/03/19 11:20:44;;;;;;;;;;;;;;;;;;;;;
2024/03/19 11:30:07;;;;;;;6.97;2.80;;;;;;;;;;6134914;23;20006;-81
2024/03/19 11:39:25;;;;;;;5.82;2.88;;;;;;;;;;6092891;23;20014;-82
2024/03/19 11:42:24;;;;;;;6.40;2.58;;;;;;;;;;6139574;23;20044;-79
2024/03/19 11:45:04;;;;;;;6.15;2.65;;;;;;;;;;6134650;23;20009;-80
2024/03/19 11:48:15;;;;;;;9.77;2.80;;;;;;;;;;6166677;23;20013;-81
2024/03/19 11:54:07;;;;;;;6.82;2.25;;;;;;;;;;6051948;23;20239;-81
2024/03/19 11:56:49;;;;;;;6.75;2.83;;;;;;;;;;6064043;23;20011;-81
2024/03/19 11:59:48;;;;;;;5.38;2.65;;;;;;;;;;6084019;23;20313;-81
2024/03/19 12:02:25;;;;;;;15.30;4.60;;;;;;;;;;6083226;23;20015;-81
2024/03/19 12:07:56;;;;;;;6.28;3.63;;;;;;;;;;6057256;23;20100;-82
2024/03/19 12:10:52;;;;;;;;;;;;;;;;;;;;;
2024/03/19 12:13:47;;;;;;;5.13;2.53;;;;;;;;;;6055314;23;20006;-81
2024/03/19 12:16:16;;;;;;;4.20;2.10;;;;;;;;;;6048962;23;20016;-81
2024/03/19 12:18:45;;;;;;;5.72;2.90;;;;;;;;;;6088812;23;20011;-82
2024/03/19 12:21:35;;;;;;;8.30;3.00;;;;;;;;;;6064710;23;20003;-80
2024/03/19 12:31:37;;;;;;;5.88;2.95;;;;;;;;;;6142522;23;20065;-82
2024/03/19 12:44:18;;;;;;;5.40;2.50;;;;;;;;;;6028852;23;20031;-82
2024/03/19 13:03:40;;;;;;;5.45;2.75;;;;;;;;;;5742133;25;20020;-82
2024/03/19 13:06:47;;;;;;;5.07;2.80;;;;;;;;;;5747218;25;20040;-81
2024/03/19 13:09:16;;;;;;;8.20;3.13;;;;;;;;;;5775191;24;20022;-80
2024/03/19 13:12:06;;;;;;;7.70;3.10;;;;;;;;;;5803799;24;20008;-83
2024/03/19 13:14:36;;;;;;;8.65;2.55;;;;;;;;;;5831209;24;20018;-81
2024/03/19 13:17:31;;;;;;;7.53;2.55;;;;;;;;;;5869238;24;20041;-82
2024/03/19 13:23:23;;;;;;;3.55;2.33;;;;;;;;;;5918354;24;20020;-82
2024/03/19 13:26:43;;;;;;;5.38;2.42;;;;;;;;;;5903737;24;20510;-81
2024/03/19 13:29:48;;;;;;;5.18;2.45;;;;;;;;;;5917857;24;20032;-82
2024/03/19 13:36:28;;;;;;;7.38;2.63;;;;;;;;;;6009156;23;20640;-82
2024/03/19 13:39:27;;;;;;;7.03;2.97;;;;;;;;;;6111832;23;20454;-81
2024/03/19 13:41:53;;;;;;;31.73;17.02;;;;;;;;;;6174534;23;19997;-82
2024/03/19 13:44:21;;;;;;;21.23;11.93;;;;;;;;;;6148565;23;20016;-83
2024/03/19 13:46:48;;;;;;;12.73;7.13;;;;;;;;;;6150309;23;20001;-83
2024/03/19 13:49:22;;;;;;;17.60;6.53;;;;;;;;;;6125464;23;20006;-81
2024/03/19 13:51:48;;;;;;;11.77;5.40;;;;;;;;;;6148464;23;20024;-85
2024/03/19 13:54:14;;;;;;;9.85;5.55;;;;;;;;;;6124713;23;20013;-86
2024/03/19 13:56:52;;;;;;;7.05;4.25;;;;;;;;;;6123732;23;20079;-85
2024/03/19 13:59:39;;;;;;;12.52;7.10;;;;;;;;;;6116490;23;20036;-84
2024/03/19 14:02:15;;;;;;;8.52;4.75;;;;;;;;;;6165925;23;20028;-84
2024/03/19 14:04:43;;;;;;;10.10;4.60;;;;;;;;;;6140305;23;20016;-85
2024/03/19 14:07:13;;;;;;;6.78;3.30;;;;;;;;;;6115419;23;20059;-84
2024/03/19 14:09:53;;;;;;;10.60;5.53;;;;;;;;;;6164343;23;20083;-87
2024/03/19 14:13:07;;;;;;;8.50;3.60;;;;;;;;;;6165103;23;20135;-85
2024/03/19 14:15:39;;;;;;;;;;;;;;;;;;6118437;23;20005;-85
2024/03/19 14:18:18;;;;;;;6.72;3.60;;;;;;;;;;6120273;23;19977;-85
2024/03/19 14:20:48;;;;;;;7.68;3.83;;;;;;;;;;6144990;23;20391;-85
2024/03/19 14:24:00;;;;;;;7.47;3.45;;;;;;;;;;6166371;23;20016;-84
2024/03/19 14:26:29;;;;;;;8.20;3.95;;;;;;;;;;6140027;23;20016;-82
2024/03/19 14:28:57;;;;;;;24.40;4.10;;;;;;;;;;6162163;23;20017;-83
2024/03/19 14:31:23;;;;;;;;;;;;;;;;;;6138751;23;20009;-81
2024/03/19 14:33:48;;;;;;;10.68;3.20;;;;;;;;;;6139768;23;20322;-81
2024/03/19 14:36:17;;;;;;;6.30;3.25;;;;;;;;;;6114641;23;20091;-83
2024/03/19 14:38:42;;;;;;;8.90;3.10;;;;;;;;;;6113259;23;20110;-83
2024/03/19 14:41:12;;;;;;;9.60;3.58;;;;;;;;;;6192372;23;20092;-83
2024/03/19 14:43:38;;;;;;;8.73;3.40;;;;;;;;;;6112404;23;20462;-82
2024/03/19 14:46:04;;;;;;;8.98;3.63;;;;;;;;;;6114452;23;20009;-82
2024/03/19 14:48:31;;;;;;;11.35;4.82;;;;;;;;;;6140119;23;20001;-82
2024/03/19 14:50:57;;;;;;;6.10;3.30;;;;;;;;;;6139547;23;20001;-83
2024/03/19 14:53:23;;;;;;;5.80;3.03;;;;;;;;;;6115331;23;20012;-82
2024/03/19 14:55:49;;;;;;;6.15;3.00;;;;;;;;;;6117246;23;20403;-82
2024/03/19 14:58:17;;;;;;;4.93;2.67;;;;;;;;;;6166316;23;20048;-80
2024/03/19 15:00:43;;;;;;;11.02;3.90;;;;;;;;;;6145181;23;20012;-83
2024/03/19 15:03:09;;;;;;;5.75;3.35;;;;;;;;;;6176837;23;20017;-82
2024/03/19 15:05:35;;;;;;;9.73;3.40;;;;;;;;;;6130619;23;20013;-81
2024/03/19 15:08:01;;;;;;;7.85;4.03;;;;;;;;;;6128267;23;20446;-82
2024/03/19 15:10:27;;;;;;;6.07;3.58;;;;;;;;;;6124702;23;20084;-81
2024/03/19 15:12:53;;;;;;;7.65;3.30;;;;;;;;;;6146093;23;20005;-81
2024/03/19 15:15:21;;;;;;;7.90;3.83;;;;;;;;;;6147411;23;20005;-82
2024/03/19 15:17:46;;;;;;;7.38;3.65;;;;;;;;;;6149424;23;20119;-82
2024/03/19 15:20:15;;;;;;;7.07;3.78;;;;;;;;;;6128662;23;20008;-81
2024/03/19 15:22:43;;;;;;;7.45;3.55;;;;;;;;;;6177099;23;20019;-81
2024/03/19 15:25:09;;;;;;;8.55;3.78;;;;;;;;;;6129581;23;20009;-82
2024/03/19 15:27:38;;;;;;;8.02;4.10;;;;;;;;;;6141869;23;20040;-80
2024/03/19 15:30:04;;;;;;;8.25;3.65;;;;;;;;;;6116698;23;20009;-81
2024/03/19 15:32:32;;;;;;;7.78;3.95;;;;;;;;;;6143144;23;20339;-81
2024/03/19 15:34:58;;;;;;;10.32;3.88;;;;;;;;;;6114345;23;20013;-83
2024/03/19 15:37:24;;;;;;;11.35;5.93;;;;;;;;;;6138715;23;20009;-81
2024/03/19 15:39:50;;;;;;;7.47;4.00;;;;;;;;;;6115571;23;20024;-81
2024/03/19 15:42:15;;;;;;;9.75;3.83;;;;;;;;;;6118360;23;20057;-80
2024/03/19 15:44:41;;;;;;;7.45;3.75;;;;;;;;;;6140347;23;20009;-82
2024/03/19 15:47:07;;;;;;;11.07;3.60;;;;;;;;;;6117264;23;20013;-82
2024/03/19 15:49:32;;;;;;;9.02;4.03;;;;;;;;;;6116793;23;20526;-81
2024/03/19 15:51:58;;;;;;;9.25;4.10;;;;;;;;;;6115367;23;20012;-82
2024/03/19 15:54:24;;;;;;;9.07;4.35;;;;;;;;;;6140129;23;20013;-82
2024/03/19 15:56:52;;;;;;;8.63;4.13;;;;;;;;;;6115823;23;20127;-82
2024/03/19 15:59:17;;;;;;;7.97;3.58;;;;;;;;;;6141305;23;20009;-83
2024/03/19 16:01:45;;;;;;;7.05;4.13;;;;;;;;;;6166305;23;20005;-83
2024/03/19 16:04:13;;;;;;;8.95;3.65;;;;;;;;;;6139957;23;20088;-83
2024/03/19 16:06:46;;;;;;;8.75;4.25;;;;;;;;;;6116123;23;20380;-83
2024/03/19 16:09:12;;;;;;;6.82;3.67;;;;;;;;;;6118858;23;20342;-82
2024/03/19 16:11:38;;;;;;;7.53;3.97;;;;;;;;;;6119715;23;20005;-82
2024/03/19 16:14:06;;;;;;;6.90;3.88;;;;;;;;;;6141247;23;20044;-83
2024/03/19 16:16:33;;;;;;;10.15;4.45;;;;;;;;;;6096604;23;20083;-82
2024/03/19 16:18:58;;;;;;;7.38;4.03;;;;;;;;;;6142073;23;20032;-82
2024/03/19 16:21:24;;;;;;;7.50;3.58;;;;;;;;;;6120893;23;20013;-81